Terminal Aerodrome Forecast
Issued by NWS

Home | Current Version | Previous Version | Text Only | Print | Product List | Glossary On
Versions: 1 2 3 4 5 6 7 8 9 10 11 12 13 14 15 16
000
FTUS46 KLOX 291700
TAFPRB
TAF
KPRB 291720Z 2918/3018 VRB03KT P6SM SKC
     FM292200 21014KT P6SM SKC
     FM300200 32010KT P6SM SKC
     FM300800 VRB03KT P6SM SKC
     FM301100 VRB03KT P6SM OVC005=

USA.gov is the U.S. government's official web portal to all federal, state and local government web resources and services.